.
WxDataArchive / Data Records for 2009-03-03
2009-03-02 March 2009 2009-03-04

Data Records for Tuesday, 03 March 2009

Time	Temp	Chill	HIndex	Humid	Dewpt	 Wind 	HiWind	WindDir	Rain 	Barom 
-----	----	-----	------	-----	-----	------	------	-------	-----	----- 
00:00	13.3	13.3	13.3	61	2.4	0	1	68	0.00	30.554 
00:05	12.9	12.9	12.9	61	2.0	0	0	---	0.00	30.551 
00:10	12.6	12.6	12.6	62	2.1	0	1	68	0.00	30.545 
00:15	12.4	12.4	12.4	63	2.2	0	2	68	0.00	30.545 
00:20	12.3	12.3	12.3	64	2.5	0	1	68	0.00	30.546 
00:25	12.3	12.3	12.3	64	2.5	0	1	68	0.00	30.545 
00:30	12.3	12.3	12.3	64	2.5	0	1	68	0.00	30.545 
00:35	12.1	12.1	12.1	64	2.3	0	0	---	0.00	30.545 
00:40	11.9	11.9	11.9	64	2.1	0	0	---	0.00	30.545 
00:45	11.6	11.6	11.6	64	1.8	0	0	---	0.00	30.544 
00:50	11.2	11.2	11.2	64	1.4	0	0	---	0.00	30.544 
00:55	10.9	10.9	10.9	64	1.1	0	0	---	0.00	30.545 
01:00	10.7	10.7	10.7	65	1.3	0	0	---	0.00	30.547 
01:05	10.4	10.4	10.4	65	1.0	0	0	---	0.00	30.547 
01:10	10.2	10.2	10.2	66	1.1	0	0	---	0.00	30.550 
01:15	10.0	10.0	10.0	67	1.3	0	0	---	0.00	30.554 
01:20	10.0	10.0	10.0	67	1.3	0	0	---	0.00	30.560 
01:25	9.9	9.9	9.9	67	1.2	0	0	---	0.00	30.561 
01:30	9.7	9.7	9.7	68	1.3	0	0	---	0.00	30.562 
01:35	9.5	9.5	9.5	68	1.1	0	0	---	0.00	30.562 
01:40	9.3	9.3	9.3	69	1.2	0	0	---	0.00	30.562 
01:45	9.2	9.2	9.2	69	1.1	0	0	---	0.00	30.564 
01:50	9.0	9.0	9.0	70	1.2	0	0	---	0.00	30.566 
01:55	8.8	8.8	8.8	70	1.0	0	0	---	0.00	30.567 
02:00	8.6	8.6	8.6	70	0.9	0	0	---	0.00	30.566 
02:05	8.4	8.4	8.4	71	1.0	0	0	---	0.00	30.562 
02:10	8.3	8.3	8.3	71	0.9	0	0	---	0.00	30.562 
02:15	8.1	8.1	8.1	71	0.7	0	0	---	0.00	30.561 
02:20	7.9	7.9	7.9	72	0.8	0	0	---	0.00	30.561 
02:25	7.9	7.9	7.9	73	1.1	0	0	---	0.00	30.561 
02:30	7.7	7.7	7.7	73	0.9	0	0	---	0.00	30.558 
02:35	7.6	7.6	7.6	73	0.8	0	0	---	0.00	30.553 
02:40	7.4	7.4	7.4	73	0.6	0	0	---	0.00	30.549 
02:45	7.2	7.2	7.2	73	0.4	0	0	---	0.00	30.551 
02:50	7.0	7.0	7.0	74	0.5	0	0	---	0.00	30.555 
02:55	7.0	7.0	7.0	75	0.8	0	0	---	0.00	30.553 
03:00	7.0	7.0	7.0	76	1.1	0	0	---	0.00	30.558 
03:05	7.2	7.2	7.2	76	1.3	0	0	---	0.00	30.560 
03:10	7.2	7.2	7.2	76	1.3	0	0	---	0.00	30.560 
03:15	7.2	7.2	7.2	76	1.3	0	0	---	0.00	30.561 
03:20	7.2	7.2	7.2	76	1.3	0	0	---	0.00	30.564 
03:25	7.0	7.0	7.0	76	1.1	0	0	---	0.00	30.562 
03:30	7.0	7.0	7.0	77	1.3	0	0	---	0.00	30.563 
03:35	7.0	7.0	7.0	77	1.3	0	0	---	0.00	30.564 
03:40	7.0	7.0	7.0	77	1.3	0	0	---	0.00	30.563 
03:45	7.0	7.0	7.0	77	1.3	0	0	---	0.00	30.570 
03:50	6.9	6.9	6.9	77	1.2	0	0	---	0.00	30.569 
03:55	6.9	6.9	6.9	77	1.2	0	0	---	0.00	30.568 
04:00	6.7	6.7	6.7	77	1.0	0	0	---	0.00	30.564 
04:05	6.5	6.5	6.5	77	0.9	0	0	---	0.00	30.563 
04:10	6.3	6.3	6.3	77	0.7	0	0	---	0.00	30.566 
04:15	6.1	6.1	6.1	77	0.5	0	0	---	0.00	30.569 
04:20	6.1	6.1	6.1	78	0.7	0	0	---	0.00	30.567 
04:25	6.0	6.0	6.0	78	0.6	0	0	---	0.00	30.567 
04:30	5.8	5.8	5.8	78	0.4	0	0	---	0.00	30.570 
04:35	5.6	5.6	5.6	78	0.3	0	0	---	0.00	30.573 
04:40	5.6	5.6	5.6	78	0.3	0	0	---	0.00	30.570 
04:45	5.4	5.4	5.4	79	0.3	0	0	---	0.00	30.567 
04:50	5.4	5.4	5.4	79	0.3	0	0	---	0.00	30.570 
04:55	5.4	5.4	5.4	79	0.3	0	0	---	0.00	30.571 
05:00	5.4	5.4	5.4	79	0.3	0	0	---	0.00	30.566 
05:05	5.4	5.4	5.4	80	0.6	0	0	---	0.00	30.568 
05:10	5.2	5.2	5.2	80	0.4	0	0	---	0.00	30.570 
05:15	5.2	5.2	5.2	80	0.4	0	0	---	0.00	30.572 
05:20	5.2	5.2	5.2	80	0.4	0	0	---	0.00	30.570 
05:25	5.2	5.2	5.2	80	0.4	0	0	---	0.00	30.568 
05:30	5.0	5.0	5.0	80	0.2	0	0	---	0.00	30.567 
05:35	5.0	5.0	5.0	80	0.2	0	0	---	0.00	30.568 
05:40	4.8	4.8	4.8	80	0.0	0	0	---	0.00	30.572 
05:45	4.8	4.8	4.8	81	0.3	0	0	---	0.00	30.575 
05:50	4.8	4.8	4.8	81	0.3	0	0	---	0.00	30.577 
05:55	4.8	4.8	4.8	81	0.3	0	0	---	0.00	30.579 
06:00	4.7	4.7	4.7	81	0.2	0	0	---	0.00	30.580 
06:05	4.7	4.7	4.7	81	0.2	0	0	---	0.00	30.582 
06:10	4.8	4.8	4.8	81	0.3	0	0	---	0.00	30.583 
06:15	4.8	4.8	4.8	81	0.3	0	0	---	0.00	30.584 
06:20	4.8	4.8	4.8	81	0.3	0	0	---	0.00	30.585 
06:25	4.7	4.7	4.7	81	0.2	0	0	---	0.00	30.584 
06:30	4.7	4.7	4.7	81	0.2	0	0	---	0.00	30.585 
06:35	4.7	4.7	4.7	82	0.4	0	0	---	0.00	30.586 
06:40	4.7	4.7	4.7	82	0.4	0	0	---	0.00	30.587 
06:45	4.7	4.7	4.7	82	0.4	0	0	---	0.00	30.593 
06:50	4.7	4.7	4.7	82	0.4	0	0	---	0.00	30.589 
06:55	4.5	4.5	4.5	81	-0.0	0	0	---	0.00	30.586 
07:00	4.5	4.5	4.5	81	-0.0	0	0	---	0.00	30.586 
07:05	4.3	4.3	4.3	81	-0.2	0	0	---	0.00	30.590 
07:10	4.3	4.3	4.3	81	-0.2	0	0	---	0.00	30.596 
07:15	4.3	4.3	4.3	82	0.0	0	0	---	0.00	30.600 
07:20	4.5	4.5	4.5	82	0.2	0	0	---	0.00	30.601 
07:25	4.7	4.7	4.7	82	0.4	0	0	---	0.00	30.600 
07:30	4.7	4.7	4.7	82	0.4	0	0	---	0.00	30.601 
07:35	4.8	4.8	4.8	82	0.5	0	0	---	0.00	30.602 
07:40	5.4	5.4	5.4	82	1.1	0	0	---	0.00	30.604 
07:45	6.0	6.0	6.0	83	2.0	0	0	---	0.00	30.608 
07:50	6.5	6.5	6.5	83	2.5	0	0	---	0.00	30.607 
07:55	7.4	7.4	7.4	84	3.6	0	0	---	0.00	30.609 
08:00	8.3	8.3	8.3	84	4.5	0	0	---	0.00	30.612 
08:05	9.0	9.0	9.0	84	5.2	0	0	---	0.00	30.615 
08:10	9.9	9.9	9.9	84	6.1	0	0	---	0.00	30.614 
08:15	10.5	10.5	10.5	84	6.6	0	0	---	0.00	30.619 
08:20	11.2	11.2	11.2	83	7.1	0	0	---	0.00	30.620 
08:25	11.7	11.7	11.7	81	7.0	0	2	68	0.00	30.620 
08:30	12.4	12.4	12.4	72	5.1	1	2	68	0.00	30.622 
08:35	12.9	12.9	12.9	66	3.7	1	3	68	0.00	30.625 
08:40	13.5	13.5	13.5	62	2.9	1	3	112	0.00	30.625 
08:45	13.8	13.8	13.8	60	2.5	1	4	112	0.00	30.623 
08:50	14.3	14.3	14.3	57	1.9	1	3	90	0.00	30.623 
08:55	14.8	14.8	14.8	55	1.6	1	4	112	0.00	30.621 
09:00	14.6	14.6	14.6	51	-0.2	1	3	112	0.00	30.622 
09:05	14.9	14.9	14.9	53	0.9	1	2	112	0.00	30.623 
09:10	15.6	15.6	15.6	55	2.3	0	2	112	0.00	30.624 
09:15	16.2	16.2	16.2	51	1.3	1	2	112	0.00	30.623 
09:20	16.7	16.7	16.7	51	1.8	1	3	112	0.00	30.623 
09:25	16.9	16.9	16.9	50	1.5	1	3	112	0.00	30.622 
09:30	16.9	16.9	16.9	50	1.5	0	3	112	0.00	30.622 
09:35	17.2	17.2	17.2	50	1.8	1	4	112	0.00	30.622 
09:40	17.3	17.3	17.3	51	2.3	1	3	112	0.00	30.621 
09:45	18.0	18.0	18.0	49	2.1	0	3	112	0.00	30.621 
09:50	18.6	18.6	18.6	50	3.1	0	1	112	0.00	30.621 
09:55	19.1	19.1	19.1	46	1.8	1	2	112	0.00	30.623 
10:00	19.2	19.2	19.2	47	2.3	0	3	112	0.00	30.622 
10:05	19.4	19.4	19.4	46	2.0	1	3	112	0.00	30.625 
10:10	19.2	19.2	19.2	48	2.8	0	3	112	0.00	30.623 
10:15	19.5	19.5	19.5	47	2.6	1	3	112	0.00	30.620 
10:20	19.5	19.5	19.5	46	2.1	1	3	90	0.00	30.620 
10:25	19.5	19.5	19.5	48	3.0	0	2	90	0.00	30.620 
10:30	20.0	20.0	20.0	45	2.1	0	2	248	0.00	30.621 
10:35	20.6	20.6	20.6	46	3.1	0	2	292	0.00	30.620 
10:40	21.0	21.0	21.0	47	4.0	1	3	22	0.00	30.620 
10:45	21.1	21.1	21.1	46	3.6	1	3	22	0.00	30.619 
10:50	21.3	21.3	21.3	44	2.8	0	2	90	0.00	30.619 
10:55	21.4	21.4	21.4	44	2.9	0	2	90	0.00	30.615 
11:00	21.4	21.4	21.4	44	2.9	0	3	225	0.00	30.612 
11:05	21.6	21.6	21.6	46	4.1	1	3	225	0.00	30.614 
11:10	21.8	21.8	21.8	41	1.8	0	2	112	0.00	30.616 
11:15	21.4	21.4	21.4	41	1.4	0	2	112	0.00	30.617 
11:20	21.3	21.3	21.3	40	0.8	1	3	112	0.00	30.616 
11:25	21.6	21.6	21.6	40	1.1	1	3	112	0.00	30.616 
11:30	21.9	21.9	21.9	44	3.4	1	2	112	0.00	30.615 
11:35	21.9	21.9	21.9	41	1.9	1	2	248	0.00	30.616 
11:40	21.8	21.8	21.8	41	1.8	1	4	248	0.00	30.613 
11:45	21.9	21.9	21.9	40	1.3	0	3	248	0.00	30.609 
11:50	22.2	22.2	22.2	43	3.1	0	2	248	0.00	30.605 
11:55	23.0	23.0	23.0	39	1.8	1	4	112	0.00	30.603 
12:00	23.0	23.0	23.0	40	2.3	1	6	112	0.00	30.605 
12:05	23.0	23.0	23.0	37	0.7	1	3	112	0.00	30.606 
12:10	23.3	23.3	23.3	39	2.0	0	1	112	0.00	30.604 
12:15	23.9	23.9	23.9	35	0.3	1	3	112	0.00	30.602 
12:20	24.4	24.4	24.4	39	3.0	1	3	112	0.00	30.596 
12:25	24.2	24.2	24.2	36	1.1	1	2	45	0.00	30.591 
12:30	24.1	24.1	24.1	36	1.1	1	2	45	0.00	30.589 
12:35	23.9	23.9	23.9	38	2.0	1	3	45	0.00	30.585 
12:40	24.1	24.1	24.1	39	2.8	1	3	112	0.00	30.586 
12:45	24.2	24.2	24.2	37	1.7	2	5	112	0.00	30.576 
12:50	24.2	24.2	24.2	38	2.3	1	2	112	0.00	30.573 
12:55	24.2	24.2	24.2	38	2.3	1	5	112	0.00	30.571 
13:00	24.2	24.2	24.2	37	1.7	1	3	45	0.00	30.568 
13:05	24.2	24.2	24.2	35	0.5	0	3	112	0.00	30.568 
13:10	24.4	24.4	24.4	39	3.0	1	3	112	0.00	30.562 
13:15	24.5	24.5	24.5	37	2.0	1	4	112	0.00	30.561 
13:20	24.7	24.7	24.7	36	1.6	0	2	90	0.00	30.560 
13:25	25.3	25.3	25.3	39	3.8	0	1	90	0.00	30.560 
13:30	25.4	25.4	25.4	36	2.2	0	2	90	0.00	30.560 
13:35	25.3	25.3	25.3	37	2.7	1	3	90	0.00	30.560 
13:40	25.4	25.4	25.4	38	3.4	0	2	45	0.00	30.559 
13:45	25.6	25.6	25.6	38	3.6	1	4	90	0.00	30.558 
13:50	25.7	25.7	25.7	39	4.2	0	2	90	0.00	30.557 
13:55	26.1	26.1	26.1	39	4.6	0	2	90	0.00	30.557 
14:00	26.9	26.9	26.9	39	5.3	0	3	90	0.00	30.554 
14:05	27.0	27.0	27.0	35	3.0	1	3	135	0.00	30.554 
14:10	26.9	26.9	26.9	35	2.9	1	4	112	0.00	30.548 
14:15	26.6	26.6	26.6	35	2.7	1	3	112	0.00	30.544 
14:20	26.7	26.7	26.7	35	2.8	1	3	225	0.00	30.548 
14:25	26.9	26.9	26.9	34	2.3	0	3	225	0.00	30.548 
14:30	27.0	27.0	27.0	34	2.4	1	3	225	0.00	30.546 
14:35	27.3	27.3	27.3	35	3.3	1	5	90	0.00	30.544 
14:40	27.3	27.3	27.3	36	3.9	0	3	90	0.00	30.544 
14:45	27.5	27.5	27.5	35	3.5	1	4	90	0.00	30.543 
14:50	27.5	27.5	27.5	35	3.5	1	2	90	0.00	30.543 
14:55	27.8	27.8	27.8	34	3.1	0	3	68	0.00	30.542 
15:00	28.2	28.2	28.2	35	4.1	0	3	292	0.00	30.542 
15:05	28.4	28.4	28.4	33	3.0	1	4	202	0.00	30.542 
15:10	28.2	28.2	28.2	30	0.8	1	3	90	0.00	30.542 
15:15	28.1	28.1	28.1	32	2.1	1	2	225	0.00	30.542 
15:20	27.9	27.9	27.9	30	0.5	0	3	338	0.00	30.539 
15:25	28.4	28.4	28.4	30	1.0	1	3	338	0.00	30.538 
15:30	28.1	28.1	28.1	30	0.7	1	3	248	0.00	30.538 
15:35	28.5	28.5	28.5	28	-0.4	1	4	248	0.00	30.537 
15:40	28.7	28.7	28.7	28	-0.2	1	4	248	0.00	30.535 
15:45	28.7	28.7	28.7	30	1.2	0	3	248	0.00	30.528 
15:50	28.8	28.8	28.8	29	0.6	0	1	248	0.00	30.526 
15:55	28.8	28.8	28.8	27	-0.9	0	2	248	0.00	30.525 
16:00	28.8	28.8	28.8	29	0.6	0	1	248	0.00	30.525 
16:05	28.7	28.7	28.7	28	-0.2	0	2	338	0.00	30.527 
16:10	28.4	28.4	28.4	30	1.0	1	4	338	0.00	30.530 
16:15	28.2	28.2	28.2	31	1.5	1	3	45	0.00	30.530 
16:20	27.9	27.9	27.9	32	1.9	1	3	90	0.00	30.532 
16:25	27.8	27.8	27.8	30	0.4	0	2	248	0.00	30.532 
16:30	27.6	27.6	27.6	31	1.0	1	2	90	0.00	30.531 
16:35	27.8	27.8	27.8	31	1.1	1	3	248	0.00	30.529 
16:40	28.1	28.1	28.1	31	1.4	0	2	248	0.00	30.528 
16:45	28.4	28.4	28.4	31	1.7	0	2	248	0.00	30.528 
16:50	28.4	28.4	28.4	31	1.7	0	2	248	0.00	30.527 
16:55	28.1	28.1	28.1	31	1.4	0	2	90	0.00	30.527 
17:00	27.9	27.9	27.9	35	3.8	0	1	68	0.00	30.525 
17:05	27.8	27.8	27.8	32	1.8	0	1	68	0.00	30.525 
17:10	27.6	27.6	27.6	34	2.9	0	1	68	0.00	30.526 
17:15	27.3	27.3	27.3	34	2.7	0	1	68	0.00	30.526 
17:20	27.2	27.2	27.2	35	3.2	0	3	68	0.00	30.523 
17:25	27.0	27.0	27.0	34	2.4	1	3	112	0.00	30.517 
17:30	27.0	27.0	27.0	36	3.6	1	2	112	0.00	30.514 
17:35	26.9	26.9	26.9	36	3.6	1	4	90	0.00	30.512 
17:40	26.9	26.9	26.9	37	4.1	1	3	135	0.00	30.511 
17:45	26.9	26.9	26.9	37	4.1	0	3	135	0.00	30.512 
17:50	26.7	26.7	26.7	36	3.4	1	3	112	0.00	30.511 
17:55	26.6	26.6	26.6	37	3.9	1	4	112	0.00	30.511 
18:00	26.3	26.3	26.3	37	3.6	1	4	112	0.00	30.514 
18:05	26.3	26.3	26.3	38	4.2	1	3	90	0.00	30.514 
18:10	26.1	26.1	26.1	38	4.0	0	1	90	0.00	30.515 
18:15	26.0	26.0	26.0	39	4.5	1	3	90	0.00	30.515 
18:20	25.8	25.8	25.8	39	4.3	0	1	112	0.00	30.514 
18:25	25.6	25.6	25.6	40	4.7	0	2	112	0.00	30.514 
18:30	25.4	25.4	25.4	39	3.9	1	2	112	0.00	30.513 
18:35	25.4	25.4	25.4	41	5.0	0	1	112	0.00	30.513 
18:40	25.3	25.3	25.3	41	4.9	0	3	112	0.00	30.512 
18:45	25.1	25.1	25.1	42	5.3	0	2	112	0.00	30.513 
18:50	25.0	25.0	25.0	41	4.7	0	2	112	0.00	30.513 
18:55	24.8	24.8	24.8	42	5.0	0	1	68	0.00	30.511 
19:00	24.7	24.7	24.7	43	5.4	0	1	68	0.00	30.509 
19:05	24.7	24.7	24.7	42	4.9	0	1	68	0.00	30.508 
19:10	24.5	24.5	24.5	43	5.2	0	1	68	0.00	30.510 
19:15	24.4	24.4	24.4	43	5.2	0	1	68	0.00	30.505 
19:20	24.4	24.4	24.4	43	5.2	0	2	68	0.00	30.502 
19:25	24.4	24.4	24.4	43	5.2	0	2	68	0.00	30.500 
19:30	24.4	24.4	24.4	43	5.2	0	2	90	0.00	30.499 
19:35	24.4	24.4	24.4	45	6.1	0	1	90	0.00	30.498 
19:40	24.4	24.4	24.4	45	6.1	0	1	90	0.00	30.497 
19:45	24.4	24.4	24.4	45	6.1	0	1	90	0.00	30.498 
19:50	24.4	24.4	24.4	46	6.6	0	1	90	0.00	30.498 
19:55	24.4	24.4	24.4	46	6.6	0	1	90	0.00	30.497 
20:00	24.4	24.4	24.4	46	6.6	0	1	90	0.00	30.497 
20:05	24.2	24.2	24.2	46	6.4	0	1	90	0.00	30.491 
20:10	24.1	24.1	24.1	47	6.8	0	0	---	0.00	30.492 
20:15	23.9	23.9	23.9	48	7.1	0	0	---	0.00	30.492 
20:20	23.8	23.8	23.8	49	7.5	0	1	90	0.00	30.491 
20:25	23.6	23.6	23.6	49	7.3	0	1	90	0.00	30.492 
20:30	23.5	23.5	23.5	49	7.2	0	1	90	0.00	30.490 
20:35	23.3	23.3	23.3	49	7.0	0	1	90	0.00	30.490 
20:40	23.3	23.3	23.3	50	7.4	0	1	90	0.00	30.490 
20:45	23.2	23.2	23.2	51	7.8	0	0	---	0.00	30.490 
20:50	23.0	23.0	23.0	51	7.6	0	0	---	0.00	30.490 
20:55	22.9	22.9	22.9	52	7.9	0	0	---	0.00	30.489 
21:00	22.7	22.7	22.7	53	8.2	0	0	---	0.00	30.485 
21:05	22.7	22.7	22.7	55	9.0	0	0	---	0.00	30.482 
21:10	22.7	22.7	22.7	55	9.0	0	1	90	0.00	30.483 
21:15	22.7	22.7	22.7	55	9.0	0	1	90	0.00	30.482 
21:20	22.7	22.7	22.7	56	9.4	0	1	90	0.00	30.482 
21:25	22.9	22.9	22.9	55	9.2	0	1	90	0.00	30.479 
21:30	22.9	22.9	22.9	55	9.2	0	1	90	0.00	30.484 
21:35	23.0	23.0	23.0	55	9.3	0	1	90	0.00	30.484 
21:40	23.0	23.0	23.0	56	9.7	0	1	90	0.00	30.480 
21:45	23.2	23.2	23.2	56	9.9	0	0	---	0.00	30.481 
21:50	23.2	23.2	23.2	55	9.5	0	1	90	0.00	30.476 
21:55	23.2	23.2	23.2	54	9.1	0	1	90	0.00	30.477 
22:00	23.2	23.2	23.2	54	9.1	0	1	90	0.00	30.476 
22:05	23.2	23.2	23.2	53	8.6	0	1	90	0.00	30.475 
22:10	23.0	23.0	23.0	53	8.4	0	0	---	0.00	30.474 
22:15	23.0	23.0	23.0	54	8.9	0	0	---	0.00	30.476 
22:20	22.7	22.7	22.7	55	9.0	0	0	---	0.00	30.471 
22:25	22.4	22.4	22.4	56	9.1	0	0	---	0.00	30.472 
22:30	22.2	22.2	22.2	57	9.3	0	0	---	0.00	30.474 
22:35	21.9	21.9	21.9	57	9.0	0	0	---	0.00	30.476 
22:40	21.6	21.6	21.6	57	8.8	0	0	---	0.00	30.479 
22:45	21.4	21.4	21.4	58	8.9	0	1	90	0.00	30.477 
22:50	21.4	21.4	21.4	59	9.3	0	0	---	0.00	30.480 
22:55	21.4	21.4	21.4	60	9.7	0	0	---	0.00	30.480 
23:00	21.4	21.4	21.4	60	9.7	0	0	---	0.00	30.477 
23:05	21.4	21.4	21.4	60	9.7	0	0	---	0.00	30.474 
23:10	21.4	21.4	21.4	60	9.7	0	0	---	0.00	30.471 
23:15	21.4	21.4	21.4	60	9.7	0	1	90	0.00	30.471 
23:20	21.4	21.4	21.4	60	9.7	0	0	---	0.00	30.471 
23:25	21.3	21.3	21.3	60	9.6	0	0	---	0.00	30.472 
23:30	21.3	21.3	21.3	61	10.0	0	0	---	0.00	30.470 
23:35	21.1	21.1	21.1	61	9.8	0	0	---	0.00	30.468 
23:40	21.1	21.1	21.1	62	10.1	0	0	---	0.00	30.468 
23:45	21.1	21.1	21.1	62	10.1	0	0	---	0.00	30.466 
23:50	21.1	21.1	21.1	62	10.1	0	0	---	0.00	30.462 
23:55	21.3	21.3	21.3	62	10.3	0	0	---	0.00	30.463 

CoCoRaHS
IN-AL-39
A2 Web Hosting
Creative Commons License
GoDaddy
search engine by freefind advanced

loaded 2018-11-20 07:06:31 • last modified 2010-11-18 10:43:29
Privacy PolicyDisclaimer
• wx.awcolley.com is powered by PmWiki v.2002016 •
• all content (unless otherwise noted) © 2018 A W Colley